sensor_id;sensor_type;location;lat;lon;timestamp;pressure;altitude;pressure_sealevel;temperature;humidity
26436;BME280;15351;52.408;16.826;2023-03-04T00:01:59;100860.59;;;4.21;77.18
26436;BME280;15351;52.408;16.826;2023-03-04T00:04:39;100856.05;;;4.25;77.13
26436;BME280;15351;52.408;16.826;2023-03-04T00:07:12;100854.27;;;4.27;77.04
26436;BME280;15351;52.408;16.826;2023-03-04T00:09:43;100859.55;;;4.34;77.01
26436;BME280;15351;52.408;16.826;2023-03-04T00:12:12;100852.92;;;4.39;76.87
26436;BME280;15351;52.408;16.826;2023-03-04T00:15:06;100853.51;;;4.40;76.86
26436;BME280;15351;52.408;16.826;2023-03-04T00:17:34;100856.84;;;4.43;76.65
26436;BME280;15351;52.408;16.826;2023-03-04T00:20:02;100855.57;;;4.45;76.65
26436;BME280;15351;52.408;16.826;2023-03-04T00:23:09;100852.85;;;4.47;76.51
26436;BME280;15351;52.408;16.826;2023-03-04T00:25:37;100853.15;;;4.46;76.33
26436;BME280;15351;52.408;16.826;2023-03-04T00:28:26;100846.47;;;4.39;76.32
26436;BME280;15351;52.408;16.826;2023-03-04T00:30:55;100843.64;;;4.37;76.46
26436;BME280;15351;52.408;16.826;2023-03-04T00:33:47;100841.64;;;4.41;76.24
26436;BME280;15351;52.408;16.826;2023-03-04T00:36:36;100842.55;;;4.39;76.17
26436;BME280;15351;52.408;16.826;2023-03-04T00:39:06;100842.45;;;4.38;76.36
26436;BME280;15351;52.408;16.826;2023-03-04T00:42:03;100830.64;;;4.39;76.43
26436;BME280;15351;52.408;16.826;2023-03-04T00:44:39;100827.06;;;4.39;76.18
26436;BME280;15351;52.408;16.826;2023-03-04T00:47:13;100827.35;;;4.38;76.19
26436;BME280;15351;52.408;16.826;2023-03-04T00:49:42;100821.85;;;4.35;76.18
26436;BME280;15351;52.408;16.826;2023-03-04T00:52:25;100823.48;;;4.35;76.26
26436;BME280;15351;52.408;16.826;2023-03-04T00:54:54;100821.24;;;4.36;76.25
26436;BME280;15351;52.408;16.826;2023-03-04T00:57:22;100811.12;;;4.40;76.25
26436;BME280;15351;52.408;16.826;2023-03-04T00:59:49;100811.83;;;4.42;76.11
26436;BME280;15351;52.408;16.826;2023-03-04T01:02:17;100805.30;;;4.37;76.11
26436;BME280;15351;52.408;16.826;2023-03-04T01:04:44;100801.85;;;4.39;76.22
26436;BME280;15351;52.408;16.826;2023-03-04T01:07:11;100800.32;;;4.35;76.16
26436;BME280;15351;52.408;16.826;2023-03-04T01:09:39;100799.37;;;4.38;76.21
26436;BME280;15351;52.408;16.826;2023-03-04T01:12:09;100790.70;;;4.43;75.98
26436;BME280;15351;52.408;16.826;2023-03-04T01:14:45;100784.13;;;4.44;75.82
26436;BME280;15351;52.408;16.826;2023-03-04T01:17:41;100772.84;;;4.40;75.89
26436;BME280;15351;52.408;16.826;2023-03-04T01:20:24;100770.48;;;4.43;75.87
26436;BME280;15351;52.408;16.826;2023-03-04T01:22:51;100762.27;;;4.45;75.56
26436;BME280;15351;52.408;16.826;2023-03-04T01:25:22;100755.48;;;4.41;75.39
26436;BME280;15351;52.408;16.826;2023-03-04T01:27:50;100750.08;;;4.36;75.45
26436;BME280;15351;52.408;16.826;2023-03-04T01:30:20;100738.11;;;4.34;75.52
26436;BME280;15351;52.408;16.826;2023-03-04T01:33:10;100732.83;;;4.34;75.35
26436;BME280;15351;52.408;16.826;2023-03-04T01:35:37;100729.30;;;4.35;75.27
26436;BME280;15351;52.408;16.826;2023-03-04T01:38:07;100721.81;;;4.37;75.11
26436;BME280;15351;52.408;16.826;2023-03-04T01:40:45;100712.58;;;4.31;74.92
26436;BME280;15351;52.408;16.826;2023-03-04T01:43:23;100708.25;;;4.26;75.04
26436;BME280;15351;52.408;16.826;2023-03-04T01:45:53;100702.98;;;4.25;75.11
26436;BME280;15351;52.408;16.826;2023-03-04T01:48:45;100697.94;;;4.24;75.00
26436;BME280;15351;52.408;16.826;2023-03-04T01:51:32;100700.35;;;4.20;75.29
26436;BME280;15351;52.408;16.826;2023-03-04T01:54:24;100693.73;;;4.21;75.20
26436;BME280;15351;52.408;16.826;2023-03-04T01:56:59;100690.00;;;4.23;75.17
26436;BME280;15351;52.408;16.826;2023-03-04T01:59:32;100687.73;;;4.24;75.12
26436;BME280;15351;52.408;16.826;2023-03-04T02:02:09;100684.02;;;4.24;74.93
26436;BME280;15351;52.408;16.826;2023-03-04T02:04:47;100684.83;;;4.23;74.94
26436;BME280;15351;52.408;16.826;2023-03-04T02:07:19;100682.20;;;4.25;74.96
26436;BME280;15351;52.408;16.826;2023-03-04T02:09:57;100677.17;;;4.25;74.96
26436;BME280;15351;52.408;16.826;2023-03-04T02:12:26;100673.60;;;4.25;74.88
26436;BME280;15351;52.408;16.826;2023-03-04T02:15:11;100669.96;;;4.22;74.63
26436;BME280;15351;52.408;16.826;2023-03-04T02:17:43;100667.32;;;4.18;74.78
26436;BME280;15351;52.408;16.826;2023-03-04T02:20:55;100666.98;;;4.18;75.03
26436;BME280;15351;52.408;16.826;2023-03-04T02:26:30;100655.80;;;4.33;74.72
26436;BME280;15351;52.408;16.826;2023-03-04T02:29:03;100641.06;;;4.27;74.57
26436;BME280;15351;52.408;16.826;2023-03-04T02:31:39;100638.11;;;4.24;74.69
26436;BME280;15351;52.408;16.826;2023-03-04T02:34:19;100640.73;;;4.25;74.60
26436;BME280;15351;52.408;16.826;2023-03-04T02:37:09;100640.67;;;4.23;74.58
26436;BME280;15351;52.408;16.826;2023-03-04T02:39:47;100643.04;;;4.25;74.43
26436;BME280;15351;52.408;16.826;2023-03-04T02:42:17;100643.38;;;4.29;74.50
26436;BME280;15351;52.408;16.826;2023-03-04T02:44:46;100640.27;;;4.30;74.51
26436;BME280;15351;52.408;16.826;2023-03-04T02:47:30;100638.06;;;4.37;74.49
26436;BME280;15351;52.408;16.826;2023-03-04T02:50:36;100635.97;;;4.42;74.31
26436;BME280;15351;52.408;16.826;2023-03-04T02:53:26;100638.86;;;4.43;73.95
26436;BME280;15351;52.408;16.826;2023-03-04T02:56:00;100636.55;;;4.35;73.81
26436;BME280;15351;52.408;16.826;2023-03-04T02:58:33;100634.87;;;4.36;74.09
26436;BME280;15351;52.408;16.826;2023-03-04T03:01:04;100632.92;;;4.39;73.83
26436;BME280;15351;52.408;16.826;2023-03-04T03:03:37;100627.42;;;4.38;73.81
26436;BME280;15351;52.408;16.826;2023-03-04T03:06:09;100619.23;;;4.40;73.69
26436;BME280;15351;52.408;16.826;2023-03-04T03:08:36;100625.08;;;4.46;73.82
26436;BME280;15351;52.408;16.826;2023-03-04T03:11:08;100624.11;;;4.45;73.61
26436;BME280;15351;52.408;16.826;2023-03-04T03:13:36;100627.66;;;4.45;73.63
26436;BME280;15351;52.408;16.826;2023-03-04T03:16:12;100627.56;;;4.50;73.62
26436;BME280;15351;52.408;16.826;2023-03-04T03:18:39;100624.85;;;4.55;73.56
26436;BME280;15351;52.408;16.826;2023-03-04T03:21:09;100622.52;;;4.55;73.49
26436;BME280;15351;52.408;16.826;2023-03-04T03:23:39;100625.50;;;4.56;73.63
26436;BME280;15351;52.408;16.826;2023-03-04T03:26:07;100623.13;;;4.63;73.56
26436;BME280;15351;52.408;16.826;2023-03-04T03:28:39;100626.30;;;4.70;73.33
26436;BME280;15351;52.408;16.826;2023-03-04T03:31:12;100626.84;;;4.72;72.97
26436;BME280;15351;52.408;16.826;2023-03-04T03:33:41;100618.77;;;4.74;73.20
26436;BME280;15351;52.408;16.826;2023-03-04T03:36:34;100621.91;;;4.71;72.97
26436;BME280;15351;52.408;16.826;2023-03-04T03:39:04;100625.40;;;4.64;73.00
26436;BME280;15351;52.408;16.826;2023-03-04T03:41:35;100626.56;;;4.65;72.90
26436;BME280;15351;52.408;16.826;2023-03-04T03:44:23;100624.15;;;4.66;72.86
26436;BME280;15351;52.408;16.826;2023-03-04T03:47:15;100617.00;;;4.72;72.98
26436;BME280;15351;52.408;16.826;2023-03-04T03:49:48;100615.23;;;4.74;72.94
26436;BME280;15351;52.408;16.826;2023-03-04T03:52:32;100619.12;;;4.78;72.78
26436;BME280;15351;52.408;16.826;2023-03-04T03:55:03;100618.84;;;4.85;72.66
26436;BME280;15351;52.408;16.826;2023-03-04T03:57:33;100620.25;;;4.90;72.23
26436;BME280;15351;52.408;16.826;2023-03-04T04:00:19;100615.56;;;4.86;72.19
26436;BME280;15351;52.408;16.826;2023-03-04T04:02:57;100615.54;;;4.84;72.25
26436;BME280;15351;52.408;16.826;2023-03-04T04:05:44;100617.23;;;4.86;72.02
26436;BME280;15351;52.408;16.826;2023-03-04T04:08:18;100616.99;;;4.86;71.72
26436;BME280;15351;52.408;16.826;2023-03-04T04:10:51;100619.94;;;4.89;71.78
26436;BME280;15351;52.408;16.826;2023-03-04T04:13:23;100624.52;;;4.90;71.83
26436;BME280;15351;52.408;16.826;2023-03-04T04:16:06;100622.09;;;4.94;72.08
26436;BME280;15351;52.408;16.826;2023-03-04T04:19:12;100618.65;;;5.05;71.95
26436;BME280;15351;52.408;16.826;2023-03-04T04:21:52;100615.90;;;5.09;71.48
26436;BME280;15351;52.408;16.826;2023-03-04T04:24:26;100616.04;;;5.13;71.47
26436;BME280;15351;52.408;16.826;2023-03-04T04:26:54;100612.78;;;5.18;71.51
26436;BME280;15351;52.408;16.826;2023-03-04T04:29:24;100614.27;;;5.19;71.47
26436;BME280;15351;52.408;16.826;2023-03-04T04:31:59;100612.58;;;5.22;71.36
26436;BME280;15351;52.408;16.826;2023-03-04T04:34:26;100607.74;;;5.20;71.03
26436;BME280;15351;52.408;16.826;2023-03-04T04:36:54;100605.95;;;5.21;71.10
26436;BME280;15351;52.408;16.826;2023-03-04T04:39:46;100604.63;;;5.19;71.40
26436;BME280;15351;52.408;16.826;2023-03-04T04:42:31;100606.63;;;5.21;71.31
26436;BME280;15351;52.408;16.826;2023-03-04T04:45:25;100600.12;;;5.22;71.10
26436;BME280;15351;52.408;16.826;2023-03-04T04:47:55;100603.24;;;5.21;70.74
26436;BME280;15351;52.408;16.826;2023-03-04T04:50:41;100599.69;;;5.17;70.79
26436;BME280;15351;52.408;16.826;2023-03-04T04:53:44;100597.17;;;5.04;70.56
26436;BME280;15351;52.408;16.826;2023-03-04T04:59:17;100590.23;;;4.98;71.02
26436;BME280;15351;52.408;16.826;2023-03-04T05:05:49;100575.23;;;4.87;70.96
26436;BME280;15351;52.408;16.826;2023-03-04T05:08:25;100575.14;;;4.82;71.23
26436;BME280;15351;52.408;16.826;2023-03-04T05:11:11;100570.63;;;4.85;71.36
26436;BME280;15351;52.408;16.826;2023-03-04T05:13:45;100571.77;;;4.80;71.13
26436;BME280;15351;52.408;16.826;2023-03-04T05:16:29;100565.83;;;4.75;71.24
26436;BME280;15351;52.408;16.826;2023-03-04T05:19:20;100561.27;;;4.74;71.52
26436;BME280;15351;52.408;16.826;2023-03-04T05:22:16;100563.05;;;4.72;71.63
26436;BME280;15351;52.408;16.826;2023-03-04T05:24:54;100559.85;;;4.68;71.79
26436;BME280;15351;52.408;16.826;2023-03-04T05:27:31;100554.41;;;4.67;71.95
26436;BME280;15351;52.408;16.826;2023-03-04T05:30:19;100553.12;;;4.62;72.01
26436;BME280;15351;52.408;16.826;2023-03-04T05:32:58;100554.61;;;4.54;72.19
26436;BME280;15351;52.408;16.826;2023-03-04T05:36:00;100552.77;;;4.50;72.38
26436;BME280;15351;52.408;16.826;2023-03-04T05:38:33;100553.23;;;4.54;72.59
26436;BME280;15351;52.408;16.826;2023-03-04T05:41:05;100556.39;;;4.58;72.53
26436;BME280;15351;52.408;16.826;2023-03-04T05:43:36;100559.50;;;4.57;72.47
26436;BME280;15351;52.408;16.826;2023-03-04T05:46:34;100558.40;;;4.55;72.76
26436;BME280;15351;52.408;16.826;2023-03-04T05:49:28;100563.70;;;4.63;72.85
26436;BME280;15351;52.408;16.826;2023-03-04T05:52:16;100561.45;;;4.68;72.83
26436;BME280;15351;52.408;16.826;2023-03-04T05:55:02;100558.45;;;4.68;72.74
26436;BME280;15351;52.408;16.826;2023-03-04T05:57:50;100558.57;;;4.61;72.79
26436;BME280;15351;52.408;16.826;2023-03-04T06:01:00;100562.89;;;4.59;72.98
26436;BME280;15351;52.408;16.826;2023-03-04T06:04:17;100555.98;;;4.58;73.02
26436;BME280;15351;52.408;16.826;2023-03-04T06:06:57;100560.55;;;4.53;73.06
26436;BME280;15351;52.408;16.826;2023-03-04T06:09:25;100556.00;;;4.54;73.21
26436;BME280;15351;52.408;16.826;2023-03-04T06:12:19;100549.23;;;4.52;73.33
26436;BME280;15351;52.408;16.826;2023-03-04T06:15:17;100551.23;;;4.48;73.54
26436;BME280;15351;52.408;16.826;2023-03-04T06:17:53;100549.55;;;4.49;73.70
26436;BME280;15351;52.408;16.826;2023-03-04T06:20:43;100547.90;;;4.57;73.76
26436;BME280;15351;52.408;16.826;2023-03-04T06:23:17;100547.98;;;4.58;73.72
26436;BME280;15351;52.408;16.826;2023-03-04T06:25:45;100553.64;;;4.55;73.74
26436;BME280;15351;52.408;16.826;2023-03-04T06:28:12;100553.14;;;4.57;73.98
26436;BME280;15351;52.408;16.826;2023-03-04T06:30:42;100555.36;;;4.56;73.91
26436;BME280;15351;52.408;16.826;2023-03-04T06:33:53;100556.23;;;4.60;74.07
26436;BME280;15351;52.408;16.826;2023-03-04T06:36:23;100552.45;;;4.62;74.14
26436;BME280;15351;52.408;16.826;2023-03-04T06:39:11;100551.32;;;4.64;74.17
26436;BME280;15351;52.408;16.826;2023-03-04T06:41:50;100551.72;;;4.67;74.20
26436;BME280;15351;52.408;16.826;2023-03-04T06:44:59;100551.70;;;4.70;74.30
26436;BME280;15351;52.408;16.826;2023-03-04T06:47:37;100549.98;;;4.65;74.28
26436;BME280;15351;52.408;16.826;2023-03-04T06:50:04;100550.80;;;4.68;74.45
26436;BME280;15351;52.408;16.826;2023-03-04T06:52:37;100554.11;;;4.71;74.50
26436;BME280;15351;52.408;16.826;2023-03-04T06:55:38;100555.39;;;4.72;74.63
26436;BME280;15351;52.408;16.826;2023-03-04T06:58:17;100548.95;;;4.75;74.67
26436;BME280;15351;52.408;16.826;2023-03-04T07:00:48;100548.81;;;4.78;74.71
26436;BME280;15351;52.408;16.826;2023-03-04T07:03:16;100546.84;;;4.80;74.76
26436;BME280;15351;52.408;16.826;2023-03-04T07:06:09;100540.27;;;4.84;74.92
26436;BME280;15351;52.408;16.826;2023-03-04T07:08:48;100544.67;;;4.84;74.78
26436;BME280;15351;52.408;16.826;2023-03-04T07:11:43;100536.33;;;4.84;74.93
26436;BME280;15351;52.408;16.826;2023-03-04T07:14:21;100539.80;;;4.85;74.92
26436;BME280;15351;52.408;16.826;2023-03-04T07:17:07;100542.85;;;4.82;75.17
26436;BME280;15351;52.408;16.826;2023-03-04T07:19:40;100539.39;;;4.87;75.20
26436;BME280;15351;52.408;16.826;2023-03-04T07:22:37;100540.07;;;4.95;75.20
26436;BME280;15351;52.408;16.826;2023-03-04T07:25:20;100542.60;;;4.99;75.07
26436;BME280;15351;52.408;16.826;2023-03-04T07:28:23;100548.56;;;4.98;75.13
26436;BME280;15351;52.408;16.826;2023-03-04T07:31:22;100540.49;;;4.98;75.25
26436;BME280;15351;52.408;16.826;2023-03-04T07:34:06;100536.89;;;5.06;75.24
26436;BME280;15351;52.408;16.826;2023-03-04T07:36:37;100536.60;;;5.11;75.15
26436;BME280;15351;52.408;16.826;2023-03-04T07:39:05;100537.38;;;5.14;75.13
26436;BME280;15351;52.408;16.826;2023-03-04T07:41:48;100538.36;;;5.15;75.13
26436;BME280;15351;52.408;16.826;2023-03-04T07:44:26;100538.35;;;5.19;75.17
26436;BME280;15351;52.408;16.826;2023-03-04T07:47:09;100532.89;;;5.20;74.89
26436;BME280;15351;52.408;16.826;2023-03-04T07:49:46;100534.88;;;5.22;74.92
26436;BME280;15351;52.408;16.826;2023-03-04T07:52:29;100534.33;;;5.20;75.06
26436;BME280;15351;52.408;16.826;2023-03-04T07:55:09;100530.35;;;5.21;75.10
26436;BME280;15351;52.408;16.826;2023-03-04T07:57:52;100532.15;;;5.25;75.12
26436;BME280;15351;52.408;16.826;2023-03-04T08:00:28;100534.25;;;5.28;75.08
26436;BME280;15351;52.408;16.826;2023-03-04T08:03:10;100531.23;;;5.28;75.06
26436;BME280;15351;52.408;16.826;2023-03-04T08:06:03;100528.15;;;5.25;75.17
26436;BME280;15351;52.408;16.826;2023-03-04T08:08:39;100528.70;;;5.27;75.31
26436;BME280;15351;52.408;16.826;2023-03-04T08:11:12;100522.41;;;5.33;75.44
26436;BME280;15351;52.408;16.826;2023-03-04T08:13:51;100520.41;;;5.43;75.75
26436;BME280;15351;52.408;16.826;2023-03-04T08:16:42;100517.16;;;5.45;75.42
26436;BME280;15351;52.408;16.826;2023-03-04T08:19:20;100519.58;;;5.48;75.59
26436;BME280;15351;52.408;16.826;2023-03-04T08:21:53;100516.73;;;5.49;75.47
26436;BME280;15351;52.408;16.826;2023-03-04T08:24:42;100515.27;;;5.51;75.40
26436;BME280;15351;52.408;16.826;2023-03-04T08:27:17;100511.98;;;5.56;75.67
26436;BME280;15351;52.408;16.826;2023-03-04T08:30:07;100514.68;;;5.57;75.69
26436;BME280;15351;52.408;16.826;2023-03-04T08:32:39;100513.39;;;5.62;75.80
26436;BME280;15351;52.408;16.826;2023-03-04T08:35:23;100514.30;;;5.65;75.72
26436;BME280;15351;52.408;16.826;2023-03-04T08:37:54;100517.00;;;5.57;75.55
26436;BME280;15351;52.408;16.826;2023-03-04T08:40:24;100513.69;;;5.53;75.85
26436;BME280;15351;52.408;16.826;2023-03-04T08:42:56;100514.05;;;5.55;76.09
26436;BME280;15351;52.408;16.826;2023-03-04T08:45:26;100515.04;;;5.59;76.26
26436;BME280;15351;52.408;16.826;2023-03-04T08:47:53;100509.59;;;5.57;76.34
26436;BME280;15351;52.408;16.826;2023-03-04T08:50:25;100511.17;;;5.51;76.74
26436;BME280;15351;52.408;16.826;2023-03-04T08:52:53;100510.67;;;5.51;76.96
26436;BME280;15351;52.408;16.826;2023-03-04T08:55:37;100504.39;;;5.55;77.09
26436;BME280;15351;52.408;16.826;2023-03-04T08:58:09;100503.72;;;5.60;77.39
26436;BME280;15351;52.408;16.826;2023-03-04T09:00:40;100502.76;;;5.61;77.44
26436;BME280;15351;52.408;16.826;2023-03-04T09:03:11;100501.46;;;5.61;77.54
26436;BME280;15351;52.408;16.826;2023-03-04T09:06:01;100503.20;;;5.64;77.73
26436;BME280;15351;52.408;16.826;2023-03-04T09:08:29;100506.97;;;5.70;77.99
26436;BME280;15351;52.408;16.826;2023-03-04T09:11:07;100506.52;;;5.74;78.17
26436;BME280;15351;52.408;16.826;2023-03-04T09:13:49;100507.52;;;5.80;78.32
26436;BME280;15351;52.408;16.826;2023-03-04T09:16:20;100505.90;;;5.82;78.27
26436;BME280;15351;52.408;16.826;2023-03-04T09:18:50;100506.06;;;5.84;78.46
26436;BME280;15351;52.408;16.826;2023-03-04T09:21:21;100499.76;;;5.88;78.61
26436;BME280;15351;52.408;16.826;2023-03-04T09:24:17;100500.69;;;5.97;78.77
26436;BME280;15351;52.408;16.826;2023-03-04T09:26:54;100502.77;;;6.03;78.84
26436;BME280;15351;52.408;16.826;2023-03-04T09:29:29;100497.61;;;6.12;78.92
26436;BME280;15351;52.408;16.826;2023-03-04T09:32:18;100498.15;;;6.14;78.82
26436;BME280;15351;52.408;16.826;2023-03-04T09:34:49;100496.48;;;6.19;78.94
26436;BME280;15351;52.408;16.826;2023-03-04T09:37:18;100496.06;;;6.25;79.02
26436;BME280;15351;52.408;16.826;2023-03-04T09:40:29;100494.43;;;6.24;78.80
26436;BME280;15351;52.408;16.826;2023-03-04T09:43:30;100488.66;;;6.30;79.14
26436;BME280;15351;52.408;16.826;2023-03-04T09:46:06;100487.71;;;6.34;79.32
26436;BME280;15351;52.408;16.826;2023-03-04T09:48:54;100490.23;;;6.34;79.46
26436;BME280;15351;52.408;16.826;2023-03-04T09:51:30;100484.25;;;6.37;79.42
26436;BME280;15351;52.408;16.826;2023-03-04T09:54:14;100485.68;;;6.42;79.56
26436;BME280;15351;52.408;16.826;2023-03-04T09:56:44;100486.33;;;6.48;79.54
26436;BME280;15351;52.408;16.826;2023-03-04T10:01:48;100479.07;;;6.66;79.88
26436;BME280;15351;52.408;16.826;2023-03-04T10:07:31;100474.85;;;6.80;79.64
26436;BME280;15351;52.408;16.826;2023-03-04T10:10:21;100477.95;;;6.81;79.54
26436;BME280;15351;52.408;16.826;2023-03-04T10:12:58;100472.34;;;6.90;79.81
26436;BME280;15351;52.408;16.826;2023-03-04T10:15:50;100475.06;;;7.02;79.57
26436;BME280;15351;52.408;16.826;2023-03-04T10:18:49;100473.83;;;7.12;79.23
26436;BME280;15351;52.408;16.826;2023-03-04T10:21:40;100469.23;;;7.13;78.97
26436;BME280;15351;52.408;16.826;2023-03-04T10:25:18;100460.91;;;7.26;79.26
26436;BME280;15351;52.408;16.826;2023-03-04T10:28:44;100458.91;;;7.33;78.21
26436;BME280;15351;52.408;16.826;2023-03-04T10:31:37;100459.52;;;7.27;77.61
26436;BME280;15351;52.408;16.826;2023-03-04T10:34:36;100451.73;;;7.22;77.17
26436;BME280;15351;52.408;16.826;2023-03-04T10:37:44;100454.34;;;7.26;77.34
26436;BME280;15351;52.408;16.826;2023-03-04T10:40:23;100447.69;;;7.40;77.08
26436;BME280;15351;52.408;16.826;2023-03-04T10:42:52;100449.22;;;7.47;76.77
26436;BME280;15351;52.408;16.826;2023-03-04T10:45:30;100450.11;;;7.57;76.81
26436;BME280;15351;52.408;16.826;2023-03-04T10:48:28;100447.88;;;7.68;76.53
26436;BME280;15351;52.408;16.826;2023-03-04T10:51:38;100441.92;;;7.80;76.09
26436;BME280;15351;52.408;16.826;2023-03-04T10:54:45;100439.58;;;7.90;75.44
26436;BME280;15351;52.408;16.826;2023-03-04T10:57:36;100434.09;;;7.94;75.41
26436;BME280;15351;52.408;16.826;2023-03-04T11:00:30;100423.42;;;8.02;75.39
26436;BME280;15351;52.408;16.826;2023-03-04T11:03:27;100426.70;;;8.15;74.78
26436;BME280;15351;52.408;16.826;2023-03-04T11:06:20;100422.94;;;8.22;74.26
26436;BME280;15351;52.408;16.826;2023-03-04T11:09:51;100422.17;;;8.32;73.96
26436;BME280;15351;52.408;16.826;2023-03-04T11:12:50;100417.39;;;8.46;74.17
26436;BME280;15351;52.408;16.826;2023-03-04T11:19:14;100418.58;;;8.72;72.58
26436;BME280;15351;52.408;16.826;2023-03-04T11:22:04;100420.82;;;8.66;71.77
26436;BME280;15351;52.408;16.826;2023-03-04T11:24:57;100419.79;;;8.68;71.90
26436;BME280;15351;52.408;16.826;2023-03-04T11:27:45;100420.71;;;8.66;71.79
26436;BME280;15351;52.408;16.826;2023-03-04T11:30:28;100418.10;;;8.70;71.74
26436;BME280;15351;52.408;16.826;2023-03-04T11:34:14;100424.11;;;8.79;71.50
26436;BME280;15351;52.408;16.826;2023-03-04T11:44:24;100419.17;;;9.15;70.35
26436;BME280;15351;52.408;16.826;2023-03-04T11:47:13;100419.63;;;9.25;69.91
26436;BME280;15351;52.408;16.826;2023-03-04T12:01:17;100411.49;;;9.63;69.22
26436;BME280;15351;52.408;16.826;2023-03-04T12:11:25;100405.24;;;9.69;67.66
26436;BME280;15351;52.408;16.826;2023-03-04T12:17:05;100401.27;;;10.08;68.22
26436;BME280;15351;52.408;16.826;2023-03-04T12:23:10;100388.66;;;10.43;66.20
26436;BME280;15351;52.408;16.826;2023-03-04T12:31:44;100388.34;;;10.45;64.24
26436;BME280;15351;52.408;16.826;2023-03-04T12:37:16;100395.49;;;10.28;63.67
26436;BME280;15351;52.408;16.826;2023-03-04T12:56:16;100405.65;;;9.50;63.17
26436;BME280;15351;52.408;16.826;2023-03-04T12:59:23;100412.52;;;9.35;63.09
26436;BME280;15351;52.408;16.826;2023-03-04T13:18:29;100467.84;;;8.65;65.00
26436;BME280;15351;52.408;16.826;2023-03-04T13:21:28;100470.95;;;8.41;65.73
26436;BME280;15351;52.408;16.826;2023-03-04T13:24:44;100465.86;;;8.24;66.70
26436;BME280;15351;52.408;16.826;2023-03-04T13:28:14;100471.52;;;8.19;67.31
26436;BME280;15351;52.408;16.826;2023-03-04T13:31:25;100473.64;;;8.15;67.81
26436;BME280;15351;52.408;16.826;2023-03-04T13:34:52;100469.44;;;8.11;67.93
26436;BME280;15351;52.408;16.826;2023-03-04T13:37:27;100472.90;;;8.04;68.07
26436;BME280;15351;52.408;16.826;2023-03-04T13:43:27;100474.78;;;8.03;68.61
26436;BME280;15351;52.408;16.826;2023-03-04T13:46:39;100473.91;;;8.01;68.73
26436;BME280;15351;52.408;16.826;2023-03-04T13:49:38;100480.97;;;8.02;68.61
26436;BME280;15351;52.408;16.826;2023-03-04T13:52:40;100483.17;;;7.96;68.59
26436;BME280;15351;52.408;16.826;2023-03-04T13:55:39;100487.30;;;7.98;68.91
26436;BME280;15351;52.408;16.826;2023-03-04T13:58:22;100486.30;;;7.99;68.92
26436;BME280;15351;52.408;16.826;2023-03-04T14:00:54;100485.21;;;7.95;68.86
26436;BME280;15351;52.408;16.826;2023-03-04T14:03:27;100487.92;;;7.97;68.84
26436;BME280;15351;52.408;16.826;2023-03-04T14:09:20;100478.37;;;8.04;69.35
26436;BME280;15351;52.408;16.826;2023-03-04T14:12:58;100477.46;;;8.11;68.98
26436;BME280;15351;52.408;16.826;2023-03-04T14:15:41;100477.95;;;8.16;68.49
26436;BME280;15351;52.408;16.826;2023-03-04T14:18:10;100479.98;;;8.21;68.45
26436;BME280;15351;52.408;16.826;2023-03-04T14:20:47;100482.36;;;8.18;68.54
26436;BME280;15351;52.408;16.826;2023-03-04T14:27:18;100487.61;;;8.18;67.61
26436;BME280;15351;52.408;16.826;2023-03-04T14:34:03;100491.88;;;8.04;66.48
26436;BME280;15351;52.408;16.826;2023-03-04T14:36:59;100487.55;;;7.92;66.27
26436;BME280;15351;52.408;16.826;2023-03-04T14:39:32;100492.02;;;7.82;66.51
26436;BME280;15351;52.408;16.826;2023-03-04T14:42:19;100490.42;;;7.77;66.60
26436;BME280;15351;52.408;16.826;2023-03-04T14:45:21;100486.48;;;7.75;66.04
26436;BME280;15351;52.408;16.826;2023-03-04T14:48:50;100492.36;;;7.75;65.68
26436;BME280;15351;52.408;16.826;2023-03-04T14:56:03;100486.48;;;7.62;64.04
26436;BME280;15351;52.408;16.826;2023-03-04T14:58:53;100500.20;;;7.57;63.60
26436;BME280;15351;52.408;16.826;2023-03-04T15:01:35;100502.54;;;7.49;63.35
26436;BME280;15351;52.408;16.826;2023-03-04T15:04:20;100499.41;;;7.39;63.44
26436;BME280;15351;52.408;16.826;2023-03-04T15:07:44;100497.79;;;7.38;63.70
26436;BME280;15351;52.408;16.826;2023-03-04T15:10:36;100496.98;;;7.35;64.02
26436;BME280;15351;52.408;16.826;2023-03-04T15:13:19;100494.45;;;7.33;64.37
26436;BME280;15351;52.408;16.826;2023-03-04T15:20:36;100492.11;;;7.27;64.57
26436;BME280;15351;52.408;16.826;2023-03-04T15:23:04;100497.73;;;7.25;64.62
26436;BME280;15351;52.408;16.826;2023-03-04T15:26:02;100498.13;;;7.26;64.65
26436;BME280;15351;52.408;16.826;2023-03-04T15:28:35;100501.25;;;7.20;64.74
26436;BME280;15351;52.408;16.826;2023-03-04T15:31:04;100497.27;;;7.14;65.07
26436;BME280;15351;52.408;16.826;2023-03-04T15:33:34;100501.14;;;7.12;65.28
26436;BME280;15351;52.408;16.826;2023-03-04T15:36:10;100499.70;;;7.12;65.10
26436;BME280;15351;52.408;16.826;2023-03-04T15:38:59;100498.02;;;7.10;65.06
26436;BME280;15351;52.408;16.826;2023-03-04T15:41:48;100507.08;;;7.05;64.82
26436;BME280;15351;52.408;16.826;2023-03-04T15:44:21;100507.12;;;6.98;65.11
26436;BME280;15351;52.408;16.826;2023-03-04T15:47:09;100514.45;;;6.92;64.95
26436;BME280;15351;52.408;16.826;2023-03-04T15:49:49;100514.24;;;6.87;65.28
26436;BME280;15351;52.408;16.826;2023-03-04T15:52:38;100520.53;;;6.84;65.39
26436;BME280;15351;52.408;16.826;2023-03-04T15:55:12;100523.92;;;6.82;65.16
26436;BME280;15351;52.408;16.826;2023-03-04T15:57:54;100526.13;;;6.78;64.89
26436;BME280;15351;52.408;16.826;2023-03-04T16:00:28;100521.64;;;6.73;64.94
26436;BME280;15351;52.408;16.826;2023-03-04T16:03:34;100523.47;;;6.67;64.99
26436;BME280;15351;52.408;16.826;2023-03-04T16:06:10;100520.47;;;6.62;64.68
26436;BME280;15351;52.408;16.826;2023-03-04T16:08:50;100521.95;;;6.56;64.49